Terminal Aerodrome Forecast
Issued by NWS Jacksonville, FL

Home | Current Version | Previous Version | Text Only | Print | Product List | Glossary On
Versions: 1 2 3 4 5 6 7 8 9 10 11 12 13 14 15 16 17 18 19 20
000
FTUS42 KJAX 182321
TAFJAX
TAF
KJAX 182321Z 1900/1924 24004KT P6SM SCT020 OVC035
      TEMPO 1900/1904 BKN020
     FM190400 24003KT 4SM BR BKN008 OVC015
     FM190700 26002KT 1/2SM FG OVC002
     FM191400 26004KT 4SM BR BKN006
     FM191600 26006KT P6SM BKN015
     FM191800 26008KT P6SM SCT025=

USA.gov is the U.S. government's official web portal to all federal, state and local government web resources and services.